Fort Osage, Missouri
Current Conditions -  °F | °C
As of 4:35 PM on Tuesday 21 Oct 2014 (Local Time) from KGPH Reporting Station
Clear Clear  
Wind Chill: 73°   Ceiling: Unl
Heat Index: 73°   Visibility: 10mi
Dew Point: 37°   Wind: 0mph
Humidity: 27%   Direction: NA
Pressure: 30.08"   Gusts: NA
Location:  39.1591°N, 94.1879°W
Report Text: KGPH 212135Z AUTO 00000KT 10SM CLR 23/03 A3008 RMK AO2
Loading
Personal Weather Stations






























Interactive Weather Map
Tropical Storm Tracking
New forecast layout! Learn more

10-Day Weather Forecast

Advertisements
Track Severe Weather on mobile